Time;durP1;ratioP1;P1;durP2;ratioP2;P2;SDS_P1;SDS_P2;PMS_P1;PMS_P2;Temp;Humidity;BMP_temperature;BMP_pressure;BME280_temperature;BME280_humidity;BME280_pressure;Samples;Min_cycle;Max_cycle;Signal;HPM_P1;HPM_P2
2022/05/03 00:02:19;;;;;;;5.75;5.18;;;;;;;13.44;47.57;101829.53;5084220;28;20044;-64
2022/05/03 00:05:00;;;;;;;8.27;5.15;;;;;;;13.39;47.58;101831.38;5091149;28;20540;-63
2022/05/03 00:08:00;;;;;;;6.10;4.97;;;;;;;13.44;47.15;101834.25;5091772;28;20038;-64
2022/05/03 00:10:41;;;;;;;6.20;5.07;;;;;;;13.38;47.43;101833.31;5090549;28;20077;-64
2022/05/03 00:13:11;;;;;;;6.90;5.35;;;;;;;13.33;47.75;101830.44;5089333;28;20765;-64
2022/05/03 00:15:39;;;;;;;5.90;5.18;;;;;;;13.20;47.49;101827.88;5091929;28;20028;-64
2022/05/03 00:18:06;;;;;;;5.28;4.85;;;;;;;13.17;47.92;101828.38;5091341;28;20395;-64
2022/05/03 00:20:32;;;;;;;4.97;4.57;;;;;;;13.20;47.47;101825.09;5091896;28;20051;-64
2022/05/03 00:22:58;;;;;;;11.05;5.35;;;;;;;13.12;47.71;101820.75;5090054;28;20448;-65
2022/05/03 00:25:24;;;;;;;5.72;5.13;;;;;;;13.10;47.68;101824.88;5089202;28;20028;-64
2022/05/03 00:27:51;;;;;;;7.55;4.97;;;;;;;13.07;47.72;101822.59;5090715;28;20055;-65
2022/05/03 00:30:16;;;;;;;6.65;5.10;;;;;;;12.98;47.88;101814.63;5091600;28;20039;-64
2022/05/03 00:32:42;;;;;;;5.75;5.00;;;;;;;12.99;47.83;101818.25;5089020;28;20020;-64
2022/05/03 00:35:11;;;;;;;5.97;5.28;;;;;;;12.91;48.02;101818.63;5090406;28;20043;-64
2022/05/03 00:37:37;;;;;;;5.78;5.05;;;;;;;12.92;48.18;101812.78;5091595;28;20024;-64
2022/05/03 00:40:03;;;;;;;5.97;4.78;;;;;;;12.87;48.19;101818.25;5089981;28;20055;-64
2022/05/03 00:42:44;;;;;;;5.43;4.93;;;;;;;12.92;48.15;101814.75;5090138;28;20028;-64
2022/05/03 00:45:32;;;;;;;6.45;5.22;;;;;;;12.85;48.14;101811.22;5088339;28;20028;-64
2022/05/03 00:48:06;;;;;;;5.80;4.70;;;;;;;12.89;47.95;101815.22;5061683;28;20036;-64
2022/05/03 00:50:34;;;;;;;7.43;5.38;;;;;;;12.83;47.94;101816.22;5070923;28;20020;-64
2022/05/03 00:53:16;;;;;;;7.25;4.95;;;;;;;12.80;48.01;101816.69;5074531;28;20032;-64
2022/05/03 00:56:06;;;;;;;5.40;4.88;;;;;;;12.73;48.35;101817.69;5083884;28;20025;-64
2022/05/03 00:58:37;;;;;;;5.95;4.93;;;;;;;12.71;48.44;101819.88;5089892;28;20538;-64
2022/05/03 01:01:17;;;;;;;7.70;5.05;;;;;;;12.62;48.73;101821.34;5086787;28;20052;-64
2022/05/03 01:04:01;;;;;;;5.97;5.13;;;;;;;12.70;48.45;101818.19;5088402;28;20047;-64
2022/05/03 01:06:36;;;;;;;11.38;5.55;;;;;;;12.55;48.56;101815.03;5088055;28;20077;-64
2022/05/03 01:09:05;;;;;;;5.28;4.78;;;;;;;12.53;48.71;101817.19;5089317;28;20107;-65
2022/05/03 01:11:47;;;;;;;6.15;5.35;;;;;;;12.50;48.80;101815.78;5090629;28;20055;-65
2022/05/03 01:14:54;;;;;;;8.73;5.53;;;;;;;12.51;48.89;101819.41;5087929;28;20047;-65
2022/05/03 01:17:35;;;;;;;7.43;5.47;;;;;;;12.49;48.73;101814.06;5025417;28;20520;-64
2022/05/03 01:20:08;;;;;;;7.35;5.50;;;;;;;12.37;48.89;101813.22;5027869;28;20045;-64
2022/05/03 01:22:58;;;;;;;9.13;5.95;;;;;;;12.29;49.48;101816.34;5021276;28;20041;-64
2022/05/03 01:25:44;;;;;;;6.70;5.40;;;;;;;12.38;48.89;101803.78;5040322;28;20045;-64
2022/05/03 01:28:42;;;;;;;6.45;5.65;;;;;;;12.33;49.23;101809.22;5076647;28;20036;-65
2022/05/03 01:31:12;;;;;;;9.35;5.43;;;;;;;12.23;49.67;101809.81;5093409;28;20028;-65
2022/05/03 01:33:42;;;;;;;5.45;4.93;;;;;;;12.19;49.76;101800.25;5093581;28;20027;-64
2022/05/03 01:36:09;;;;;;;7.82;5.50;;;;;;;12.14;49.86;101814.03;5091648;28;20020;-64
2022/05/03 01:38:46;;;;;;;6.95;5.10;;;;;;;12.15;49.96;101806.56;5094714;28;20024;-64
2022/05/03 01:41:28;;;;;;;6.20;5.60;;;;;;;12.17;49.66;101804.38;5094060;28;20387;-64
2022/05/03 01:44:18;;;;;;;6.32;5.38;;;;;;;12.22;49.29;101807.25;5094567;28;20490;-64
2022/05/03 01:46:44;;;;;;;6.68;5.70;;;;;;;12.07;49.71;101813.31;5093764;28;20406;-64
2022/05/03 01:52:24;;;;;;;9.95;5.57;;;;;;;12.04;49.66;101805.44;5092415;28;20109;-65
2022/05/03 01:55:09;;;;;;;6.13;5.57;;;;;;;12.08;49.33;101798.31;5094701;28;20032;-64
2022/05/03 01:57:52;;;;;;;7.03;5.70;;;;;;;12.04;49.65;101808.22;5081317;28;20468;-64
2022/05/03 02:00:21;;;;;;;6.22;5.63;;;;;;;11.93;49.86;101806.28;5091833;28;20035;-64
2022/05/03 02:03:03;;;;;;;5.60;5.05;;;;;;;11.97;49.49;101797.19;5084549;28;20076;-64
2022/05/03 02:05:47;;;;;;;8.15;5.53;;;;;;;11.87;49.87;101799.75;5073881;28;20028;-64
2022/05/03 02:08:22;;;;;;;7.20;5.50;;;;;;;11.92;49.99;101801.81;5073946;28;20047;-64
2022/05/03 02:10:47;;;;;;;6.57;5.40;;;;;;;11.80;49.82;101807.31;5073394;28;20012;-64
2022/05/03 02:16:37;;;;;;;5.70;4.60;;;;;;;11.78;49.99;101795.56;5092380;28;20058;-64
2022/05/03 02:19:24;;;;;;;8.23;5.13;;;;;;;11.86;49.27;101792.47;5093081;28;20550;-64
2022/05/03 02:22:31;;;;;;;6.55;5.15;;;;;;;11.89;49.46;101793.94;5086428;28;20032;-64
2022/05/03 02:25:12;;;;;;;5.55;4.90;;;;;;;11.80;49.69;101793.41;5070413;28;20048;-65
2022/05/03 02:27:46;;;;;;;7.50;5.30;;;;;;;11.79;49.61;101800.06;5080588;28;20043;-64
2022/05/03 02:30:14;;;;;;;8.77;5.22;;;;;;;11.73;49.65;101803.78;5083413;28;20028;-64
2022/05/03 02:32:54;;;;;;;7.80;5.05;;;;;;;11.72;49.63;101810.44;5091527;28;20514;-64
2022/05/03 02:35:24;;;;;;;5.22;4.72;;;;;;;11.65;49.73;101795.78;5090824;28;20043;-64
2022/05/03 02:37:55;;;;;;;6.20;5.35;;;;;;;11.63;49.94;101800.72;5093146;28;20399;-64
2022/05/03 02:40:25;;;;;;;6.13;5.20;;;;;;;11.57;49.87;101799.75;5092022;28;20165;-64
2022/05/03 02:42:54;;;;;;;5.78;5.10;;;;;;;11.61;49.96;101797.34;5093391;28;20039;-64
2022/05/03 02:45:20;;;;;;;6.55;5.40;;;;;;;11.58;49.87;101792.25;5091604;28;20089;-64
2022/05/03 02:48:10;;;;;;;6.13;5.53;;;;;;;11.58;49.88;101795.88;5092549;28;20063;-64
2022/05/03 02:51:01;;;;;;;7.05;5.63;;;;;;;11.56;49.83;101792.50;5090366;28;20032;-64
2022/05/03 02:53:47;;;;;;;7.78;5.43;;;;;;;11.54;49.86;101798.28;5092337;28;20502;-64
2022/05/03 02:56:18;;;;;;;7.35;4.93;;;;;;;11.48;50.21;101801.16;5080381;28;20051;-64
2022/05/03 03:01:47;;;;;;;7.22;5.40;;;;;;;11.48;49.85;101803.94;5091321;28;20542;-64
2022/05/03 03:02:28;;;;;;;6.47;5.10;;;;;;;11.42;50.02;101800.16;5091771;28;20450;-64
2022/05/03 03:04:59;;;;;;;6.13;5.03;;;;;;;11.40;50.00;101801.50;5093302;28;20115;-65
2022/05/03 03:07:27;;;;;;;7.43;5.63;;;;;;;11.30;49.99;101804.81;5091177;28;20036;-64
2022/05/03 03:10:03;;;;;;;5.60;5.00;;;;;;;11.31;49.84;101799.03;5093163;28;20040;-64
2022/05/03 03:12:44;;;;;;;7.63;5.50;;;;;;;11.31;49.97;101801.81;5092685;28;20046;-64
2022/05/03 03:15:14;;;;;;;5.65;5.05;;;;;;;11.31;49.86;101798.19;5091911;28;20404;-65
2022/05/03 03:17:47;;;;;;;6.43;5.20;;;;;;;11.31;49.91;101799.03;5093036;28;20024;-65
2022/05/03 03:20:14;;;;;;;6.38;5.50;;;;;;;11.28;49.87;101791.19;5092134;28;21710;-64
2022/05/03 03:22:42;;;;;;;5.68;4.85;;;;;;;11.26;50.05;101798.03;5092792;28;20455;-64
2022/05/03 03:25:09;;;;;;;8.57;5.32;;;;;;;11.25;50.21;101796.34;5092584;28;20034;-64
2022/05/03 03:27:36;;;;;;;6.68;4.93;;;;;;;11.15;50.43;101801.59;5079402;28;20036;-64
2022/05/03 03:30:05;;;;;;;5.85;5.25;;;;;;;11.13;50.35;101801.00;5074704;28;20121;-64
2022/05/03 03:32:35;;;;;;;7.43;5.55;;;;;;;11.14;50.43;101800.75;5089916;28;20028;-64
2022/05/03 03:35:01;;;;;;;7.45;5.03;;;;;;;11.17;50.19;101794.75;5091639;28;20023;-64
2022/05/03 03:37:28;;;;;;;8.77;5.40;;;;;;;11.11;49.97;101798.44;5092454;28;20510;-64
2022/05/03 03:39:54;;;;;;;5.30;4.80;;;;;;;11.11;50.43;101800.38;5091482;28;20035;-64
2022/05/03 03:42:20;;;;;;;8.50;5.05;;;;;;;11.13;50.29;101792.66;5090326;28;20051;-64
2022/05/03 03:44:46;;;;;;;6.90;5.13;;;;;;;11.08;50.16;101796.13;5092339;28;20032;-64
2022/05/03 03:47:13;;;;;;;7.70;5.10;;;;;;;11.01;50.42;101795.38;5090629;28;20366;-64
2022/05/03 03:49:39;;;;;;;6.78;5.70;;;;;;;11.01;50.49;101787.06;5090055;28;20036;-64
2022/05/03 03:52:07;;;;;;;7.43;6.25;;;;;;;10.95;50.75;101788.81;5091630;28;20035;-64
2022/05/03 03:54:34;;;;;;;6.85;5.38;;;;;;;11.02;50.37;101792.38;5091682;28;20048;-64
2022/05/03 03:57:00;;;;;;;8.55;5.57;;;;;;;10.96;50.75;101787.72;5089615;28;20028;-64
2022/05/03 03:59:30;;;;;;;6.47;5.72;;;;;;;10.93;50.79;101791.00;5089339;28;20039;-64
2022/05/03 04:01:56;;;;;;;6.75;5.53;;;;;;;10.93;51.00;101793.78;5084426;28;20044;-64
2022/05/03 04:04:26;;;;;;;8.27;5.80;;;;;;;10.94;50.96;101787.13;5091099;28;20035;-64
2022/05/03 04:06:51;;;;;;;7.50;5.65;;;;;;;10.92;50.90;101789.28;5091737;28;20020;-64
2022/05/03 04:09:17;;;;;;;6.32;5.68;;;;;;;10.92;50.62;101786.50;5091338;28;20032;-64
2022/05/03 04:11:47;;;;;;;8.05;5.93;;;;;;;10.92;50.93;101786.50;5091040;28;20052;-64
2022/05/03 04:14:13;;;;;;;8.77;6.28;;;;;;;10.88;51.34;101790.81;5090622;28;20114;-64
2022/05/03 04:16:38;;;;;;;6.30;5.65;;;;;;;10.86;50.99;101794.94;5089513;28;20043;-64
2022/05/03 04:19:04;;;;;;;10.38;6.13;;;;;;;10.85;50.98;101784.91;5091813;28;20032;-65
2022/05/03 04:21:29;;;;;;;10.85;6.55;;;;;;;10.80;51.42;101791.13;5085028;28;20028;-65
2022/05/03 04:23:54;;;;;;;8.15;6.35;;;;;;;10.78;51.25;101804.41;5091086;28;20035;-64
2022/05/03 04:26:20;;;;;;;10.13;6.43;;;;;;;10.75;51.28;101799.31;5091517;28;20027;-64
2022/05/03 04:28:45;;;;;;;7.35;6.03;;;;;;;10.73;51.35;101801.50;5088517;28;20024;-64
2022/05/03 04:31:11;;;;;;;8.93;6.57;;;;;;;10.69;51.64;101803.00;5089360;28;20384;-64
2022/05/03 04:33:36;;;;;;;10.00;6.45;;;;;;;10.72;51.45;101805.34;5091455;28;20375;-65
2022/05/03 04:36:01;;;;;;;7.53;6.13;;;;;;;10.74;51.54;101800.41;5089562;28;20039;-65
2022/05/03 04:38:26;;;;;;;12.23;6.22;;;;;;;10.67;51.87;101794.91;5089531;28;20380;-65
2022/05/03 04:40:59;;;;;;;9.95;6.20;;;;;;;10.69;51.84;101797.47;5090622;28;20077;-65
2022/05/03 04:43:24;;;;;;;;;;;;;;;10.97;50.33;101805.28;5091264;28;20058;-65
2022/05/03 04:45:51;;;;;;;7.57;5.93;;;;;;;10.70;51.80;101808.34;5090007;28;20367;-64
2022/05/03 04:48:16;;;;;;;8.07;6.55;;;;;;;10.65;52.05;101804.56;5090852;28;20119;-65
2022/05/03 04:50:41;;;;;;;9.00;6.30;;;;;;;10.70;51.64;101813.06;5089987;28;20103;-65
2022/05/03 04:53:07;;;;;;;8.45;6.18;;;;;;;10.67;52.44;101813.50;5090729;28;20032;-65
2022/05/03 04:55:32;;;;;;;7.38;6.57;;;;;;;10.65;52.19;101813.75;5089864;28;20055;-65
2022/05/03 04:57:58;;;;;;;9.45;6.57;;;;;;;10.66;52.12;101817.38;5091302;28;20467;-65
2022/05/03 05:00:23;;;;;;;8.50;6.22;;;;;;;10.65;52.60;101813.75;5083700;28;20108;-65
2022/05/03 05:02:48;;;;;;;8.32;6.85;;;;;;;10.69;52.23;101822.44;5089951;28;20552;-64
2022/05/03 05:05:13;;;;;;;7.47;6.70;;;;;;;10.65;52.35;101810.09;5089077;28;20064;-65
2022/05/03 05:07:39;;;;;;;7.95;6.38;;;;;;;10.66;52.35;101825.72;5088653;28;20040;-64
2022/05/03 05:10:23;;;;;;;7.63;6.70;;;;;;;10.68;52.12;101823.53;5089135;28;20036;-65
2022/05/03 05:12:49;;;;;;;10.20;6.55;;;;;;;10.74;52.10;101825.41;5089343;28;20039;-65
2022/05/03 05:15:14;;;;;;;12.73;6.93;;;;;;;10.78;52.50;101821.94;5089513;28;20085;-64
2022/05/03 05:17:40;;;;;;;8.55;6.60;;;;;;;10.86;52.40;101822.72;5091220;28;20501;-65
2022/05/03 05:20:06;;;;;;;10.20;7.30;;;;;;;10.76;52.52;101823.22;5090670;28;20027;-65
2022/05/03 05:22:32;;;;;;;10.35;6.95;;;;;;;10.84;52.25;101825.69;5091024;28;20035;-64
2022/05/03 05:24:57;;;;;;;10.13;6.85;;;;;;;10.77;52.48;101822.16;5088584;28;20387;-65
2022/05/03 05:27:22;;;;;;;9.90;7.18;;;;;;;10.81;52.62;101829.81;5090265;28;20085;-65
2022/05/03 05:29:48;;;;;;;7.93;7.13;;;;;;;10.82;52.55;101833.44;5090293;28;20036;-64
2022/05/03 05:32:13;;;;;;;8.43;7.53;;;;;;;10.88;52.39;101832.47;5085957;28;20035;-64
2022/05/03 05:34:38;;;;;;;8.07;6.95;;;;;;;10.83;52.62;101840.66;5097534;28;20031;-64
2022/05/03 05:37:03;;;;;;;9.85;7.85;;;;;;;10.86;52.97;101845.78;5090657;28;20036;-64
2022/05/03 05:39:29;;;;;;;9.45;7.18;;;;;;;10.85;52.75;101844.09;5104084;28;20031;-64
2022/05/03 05:41:56;;;;;;;11.30;7.07;;;;;;;10.87;52.71;101852.16;5095142;28;20364;-65
2022/05/03 05:44:21;;;;;;;9.70;7.22;;;;;;;10.97;52.14;101846.94;5109258;28;20136;-65
2022/05/03 05:46:46;;;;;;;11.15;7.10;;;;;;;10.91;52.74;101854.25;5094538;28;20107;-65
2022/05/03 05:49:12;;;;;;;8.05;7.25;;;;;;;10.91;52.54;101847.84;5096660;28;20036;-65
2022/05/03 05:51:37;;;;;;;9.63;7.10;;;;;;;10.92;52.91;101853.16;5106881;28;20432;-65
2022/05/03 05:54:02;;;;;;;10.15;7.72;;;;;;;10.96;52.87;101851.63;5097370;28;20163;-65
2022/05/03 05:56:28;;;;;;;10.13;7.60;;;;;;;11.04;52.31;101853.25;5086189;28;20040;-65
2022/05/03 05:58:53;;;;;;;11.45;7.57;;;;;;;11.00;52.78;101854.78;5089178;28;20107;-65
2022/05/03 06:01:45;;;;;;;10.93;7.45;;;;;;;11.13;52.37;101851.03;5089022;28;20051;-66
2022/05/03 06:04:10;;;;;;;10.23;8.10;;;;;;;11.12;52.41;101849.31;5084843;28;20067;-67
2022/05/03 06:06:36;;;;;;;10.02;8.02;;;;;;;11.06;52.75;101848.31;5089571;28;20482;-67
2022/05/03 06:09:05;;;;;;;11.25;8.00;;;;;;;11.12;52.90;101849.31;5098565;28;20064;-65
2022/05/03 06:11:30;;;;;;;10.07;7.85;;;;;;;11.22;52.10;101849.63;5090806;28;20024;-67
2022/05/03 06:13:56;;;;;;;9.60;7.80;;;;;;;11.31;52.04;101850.97;5100417;28;20019;-66
2022/05/03 06:16:21;;;;;;;8.55;7.53;;;;;;;11.35;52.12;101855.00;5094493;28;20489;-65
2022/05/03 06:18:46;;;;;;;9.80;7.50;;;;;;;11.46;51.61;101858.91;5091214;28;20073;-66
2022/05/03 06:21:12;;;;;;;8.88;6.95;;;;;;;11.50;51.63;101860.16;5090810;28;20387;-67
2022/05/03 06:23:38;;;;;;;10.75;7.28;;;;;;;11.66;51.37;101862.28;5096628;28;20024;-65
2022/05/03 06:26:09;;;;;;;9.75;6.90;;;;;;;11.72;50.51;101857.72;5092725;28;20039;-64
2022/05/03 06:28:35;;;;;;;11.60;7.22;;;;;;;11.85;50.18;101865.88;5107667;28;20035;-65
2022/05/03 06:31:01;;;;;;;8.75;6.25;;;;;;;11.97;50.32;101865.91;5107284;28;20034;-64
2022/05/03 06:33:26;;;;;;;10.38;7.13;;;;;;;12.04;49.47;101864.72;5109192;28;20039;-63
2022/05/03 06:35:51;;;;;;;9.38;6.80;;;;;;;12.18;49.28;101856.16;5103017;28;20071;-64
2022/05/03 06:38:17;;;;;;;9.93;6.93;;;;;;;12.23;48.74;101853.53;5086911;28;20027;-65
2022/05/03 06:40:42;;;;;;;10.00;6.50;;;;;;;12.32;48.56;101854.84;5088335;28;20047;-64
2022/05/03 06:43:08;;;;;;;7.65;6.85;;;;;;;12.45;48.04;101854.59;5098306;28;20032;-65
2022/05/03 06:45:33;;;;;;;10.15;6.32;;;;;;;12.56;47.95;101849.31;5077020;28;20150;-64
2022/05/03 06:48:00;;;;;;;8.20;6.72;;;;;;;12.59;47.85;101858.03;5076938;28;20039;-64
2022/05/03 06:50:25;;;;;;;10.65;7.05;;;;;;;12.70;47.57;101861.91;5075866;28;20368;-64
2022/05/03 06:52:51;;;;;;;11.32;6.68;;;;;;;12.80;47.21;101853.75;5078493;28;20035;-64
2022/05/03 06:55:16;;;;;;;8.10;6.10;;;;;;;12.88;46.56;101856.16;5085132;28;20038;-65
2022/05/03 06:57:41;;;;;;;7.22;6.07;;;;;;;12.92;45.98;101865.75;5100043;28;20065;-64
2022/05/03 07:00:08;;;;;;;9.07;6.35;;;;;;;12.97;45.21;101857.50;5102745;28;20046;-65
2022/05/03 07:02:34;;;;;;;7.13;5.80;;;;;;;13.10;45.31;101863.91;5086483;28;20055;-65
2022/05/03 07:05:03;;;;;;;6.93;5.13;;;;;;;13.19;44.04;101873.56;5096444;28;20027;-66
2022/05/03 07:07:29;;;;;;;6.18;5.32;;;;;;;13.29;43.54;101870.22;5094714;28;20395;-65
2022/05/03 07:09:55;;;;;;;7.07;5.38;;;;;;;13.33;42.64;101877.00;5087136;28;20097;-64
2022/05/03 07:12:21;;;;;;;5.22;4.72;;;;;;;13.44;41.78;101874.16;5088734;28;20096;-63
2022/05/03 07:14:46;;;;;;;6.32;4.50;;;;;;;13.54;41.52;101872.66;5084688;28;20760;-62
2022/05/03 07:22:45;;;;;;;4.75;4.00;;;;;;;13.60;40.37;101875.31;5077269;28;20055;-61
2022/05/03 07:22:46;;;;;;;6.88;4.47;;;;;;;13.76;39.05;101870.88;5084154;28;20055;-64
2022/05/03 07:25:16;;;;;;;3.70;3.40;;;;;;;13.81;38.65;101872.91;5090498;28;20036;-64
2022/05/03 07:27:46;;;;;;;3.92;3.53;;;;;;;13.91;38.71;101882.34;5088631;28;20035;-64
2022/05/03 07:30:16;;;;;;;3.70;3.15;;;;;;;13.98;38.34;101880.22;5090964;28;20048;-65
2022/05/03 07:32:44;;;;;;;4.25;3.60;;;;;;;14.10;38.30;101879.31;5091861;28;20034;-66
2022/05/03 07:35:11;;;;;;;4.57;3.88;;;;;;;14.20;37.55;101883.13;5092612;28;20024;-66
2022/05/03 07:37:37;;;;;;;3.92;3.40;;;;;;;14.30;36.38;101887.19;5092540;28;20020;-65
2022/05/03 07:40:04;;;;;;;6.20;3.28;;;;;;;14.40;36.62;101888.22;5091679;28;20036;-65
2022/05/03 07:42:32;;;;;;;4.40;3.80;;;;;;;14.44;36.69;101872.66;5092342;28;20144;-65
2022/05/03 07:44:57;;;;;;;5.60;3.45;;;;;;;14.58;36.36;101877.91;5092252;28;20024;-65
2022/05/03 07:47:23;;;;;;;4.60;3.70;;;;;;;14.61;35.88;101874.63;5091745;28;20507;-66
2022/05/03 07:49:48;;;;;;;4.15;3.60;;;;;;;14.69;36.10;101875.03;5092678;28;20131;-65
2022/05/03 07:52:13;;;;;;;4.85;3.30;;;;;;;14.79;36.18;101873.50;5092553;28;20093;-65
2022/05/03 07:54:42;;;;;;;5.53;3.65;;;;;;;14.86;35.82;101875.03;5091999;28;20036;-65
2022/05/03 07:57:09;;;;;;;5.95;4.20;;;;;;;14.92;35.58;101875.94;5092097;28;20449;-65
2022/05/03 07:59:34;;;;;;;4.63;3.90;;;;;;;15.05;36.12;101872.78;5092566;28;20040;-65
2022/05/03 08:01:59;;;;;;;8.10;4.30;;;;;;;15.12;36.10;101869.78;5091603;28;20466;-65
2022/05/03 08:04:25;;;;;;;6.50;4.38;;;;;;;15.14;35.89;101870.38;5092604;28;20031;-64
2022/05/03 08:06:50;;;;;;;4.28;3.85;;;;;;;15.27;35.73;101871.94;5092071;28;20085;-64
2022/05/03 08:09:15;;;;;;;4.20;3.63;;;;;;;15.29;36.12;101872.50;5091179;28;20032;-64
2022/05/03 08:11:41;;;;;;;5.00;4.50;;;;;;;15.34;35.10;101870.63;5092264;28;20150;-66
2022/05/03 08:14:06;;;;;;;4.55;4.15;;;;;;;15.41;35.44;101876.03;5092087;28;20379;-65
2022/05/03 08:16:32;;;;;;;5.10;4.60;;;;;;;15.49;35.34;101875.59;5091088;28;20024;-64
2022/05/03 08:18:57;;;;;;;4.53;3.90;;;;;;;15.52;35.79;101877.00;5092276;28;20470;-64
2022/05/03 08:21:23;;;;;;;7.60;4.22;;;;;;;15.69;35.34;101875.84;5092084;28;20028;-64
2022/05/03 08:23:48;;;;;;;7.20;3.70;;;;;;;15.73;35.44;101878.97;5091157;28;20031;-64
2022/05/03 08:26:14;;;;;;;8.85;4.90;;;;;;;15.77;35.36;101888.53;5091823;28;20058;-64
2022/05/03 08:28:42;;;;;;;7.10;4.80;;;;;;;15.88;35.64;101875.50;5091414;28;20036;-64
2022/05/03 08:31:09;;;;;;;6.50;5.10;;;;;;;15.97;35.53;101884.25;5090878;28;20051;-65
2022/05/03 08:33:34;;;;;;;6.18;5.47;;;;;;;15.95;35.57;101884.50;5091898;28;20016;-65
2022/05/03 08:36:00;;;;;;;7.10;4.90;;;;;;;16.04;35.96;101884.91;5091615;28;20383;-65
2022/05/03 08:43:54;;;;;;;7.07;5.78;;;;;;;16.33;36.51;101880.69;5091010;28;20505;-65
2022/05/03 08:46:21;;;;;;;7.15;6.00;;;;;;;16.45;37.24;101886.09;5091343;28;20161;-65
2022/05/03 08:48:52;;;;;;;6.90;6.00;;;;;;;16.56;36.63;101884.25;5091696;28;20051;-65
2022/05/03 08:51:20;;;;;;;9.18;6.50;;;;;;;16.54;36.36;101883.66;5090821;28;20069;-65
2022/05/03 08:53:45;;;;;;;9.68;6.55;;;;;;;16.62;36.79;101874.75;5091102;28;20167;-65
2022/05/03 08:56:11;;;;;;;7.95;6.35;;;;;;;16.60;36.89;101882.59;5091322;28;20068;-65
2022/05/03 08:58:44;;;;;;;7.50;6.10;;;;;;;16.67;36.97;101881.25;5090659;28;20027;-65
2022/05/03 09:01:10;;;;;;;8.45;6.85;;;;;;;16.55;37.18;101880.59;5091414;28;20016;-66
2022/05/03 09:03:37;;;;;;;6.95;6.20;;;;;;;16.69;37.56;101880.97;5090932;28;20024;-65
2022/05/03 09:06:05;;;;;;;11.93;7.22;;;;;;;16.73;37.29;101887.75;5090352;28;20027;-65
2022/05/03 09:08:33;;;;;;;8.02;6.85;;;;;;;16.85;37.41;101884.75;5090993;28;20028;-65
2022/05/03 09:10:59;;;;;;;9.25;6.90;;;;;;;16.89;37.52;101883.94;5091187;28;20379;-65
2022/05/03 09:13:26;;;;;;;10.00;7.03;;;;;;;16.93;37.54;101885.09;5090673;28;20077;-64
2022/05/03 09:15:57;;;;;;;9.02;7.32;;;;;;;16.87;37.41;101877.78;5090789;28;20036;-64
2022/05/03 09:18:29;;;;;;;7.95;6.90;;;;;;;16.93;37.61;101879.47;5090500;28;20028;-65
2022/05/03 09:23:47;;;;;;;7.80;7.00;;;;;;;16.97;39.08;101887.34;5091196;28;20091;-65
2022/05/03 09:26:23;;;;;;;7.30;6.60;;;;;;;17.06;38.95;101880.13;5090551;28;20118;-65
2022/05/03 09:28:49;;;;;;;7.97;6.93;;;;;;;17.09;39.16;101880.41;5091139;28;20368;-65
2022/05/03 09:31:50;;;;;;;7.53;6.10;;;;;;;17.18;39.03;101890.03;5091112;28;20024;-65
2022/05/03 09:34:18;;;;;;;11.05;6.57;;;;;;;17.23;38.94;101883.59;5090462;28;20039;-66
2022/05/03 09:36:44;;;;;;;8.05;6.57;;;;;;;17.35;39.34;101889.81;5091180;28;20061;-65
2022/05/03 09:39:30;;;;;;;7.85;6.30;;;;;;;17.32;39.31;101889.50;5091085;28;20433;-65
2022/05/03 09:42:06;;;;;;;9.27;6.65;;;;;;;17.37;39.29;101881.97;5093469;28;20490;-65
2022/05/03 09:44:36;;;;;;;8.55;6.75;;;;;;;17.37;38.94;101881.97;5094603;28;20024;-65
2022/05/03 09:47:05;;;;;;;9.75;6.32;;;;;;;17.45;39.81;101880.59;5094155;28;20435;-65
2022/05/03 09:49:36;;;;;;;9.95;7.18;;;;;;;17.50;39.36;101885.41;5094963;28;20048;-65
2022/05/03 09:52:03;;;;;;;8.25;6.25;;;;;;;17.55;38.77;101876.97;5094739;28;20032;-65
2022/05/03 09:54:28;;;;;;;8.20;6.45;;;;;;;17.57;39.19;101881.22;5093952;28;20035;-65
2022/05/03 09:56:54;;;;;;;8.55;6.38;;;;;;;17.65;39.27;101882.66;5094908;28;20028;-65
2022/05/03 09:59:20;;;;;;;8.43;7.03;;;;;;;17.70;38.69;101882.66;5094484;28;20036;-65
2022/05/03 10:01:46;;;;;;;7.57;6.25;;;;;;;17.75;38.61;101882.69;5093900;28;20094;-65
2022/05/03 10:04:13;;;;;;;7.82;6.53;;;;;;;17.74;39.34;101875.38;5094770;28;20437;-64
2022/05/03 10:06:39;;;;;;;7.50;6.70;;;;;;;17.72;38.75;101874.78;5094651;28;20065;-65
2022/05/03 10:09:05;;;;;;;10.38;7.28;;;;;;;17.75;39.14;101879.88;5093868;28;20061;-65
2022/05/03 10:11:34;;;;;;;7.97;7.18;;;;;;;17.73;39.33;101879.28;5094852;28;20031;-64
2022/05/03 10:13:59;;;;;;;9.27;7.30;;;;;;;17.84;39.09;101867.00;5094731;28;20032;-65
2022/05/03 10:22:03;;;;;;;7.40;5.88;;;;;;;17.95;39.45;101869.81;5093624;28;20506;-65
2022/05/03 10:24:31;;;;;;;11.52;6.80;;;;;;;18.01;39.96;101855.50;5094087;28;20070;-65
2022/05/03 10:27:02;;;;;;;8.07;7.18;;;;;;;18.08;39.37;101869.31;5094275;28;20028;-65
2022/05/03 10:29:32;;;;;;;9.30;7.25;;;;;;;18.12;39.04;101862.00;5093433;28;20540;-65
2022/05/03 10:32:06;;;;;;;11.10;7.88;;;;;;;18.18;38.63;101851.59;5094083;28;20031;-64
2022/05/03 10:35:03;;;;;;;10.93;7.50;;;;;;;18.25;39.70;101849.34;5094285;28;20028;-64
2022/05/03 10:37:29;;;;;;;8.48;7.38;;;;;;;18.37;39.91;101856.38;5093462;28;20035;-64
2022/05/03 10:39:56;;;;;;;9.43;6.50;;;;;;;18.24;38.78;101859.75;5094169;28;20020;-65
2022/05/03 10:42:25;;;;;;;7.50;5.68;;;;;;;18.24;38.17;101850.47;5093873;28;20262;-65
2022/05/03 10:45:06;;;;;;;9.20;6.93;;;;;;;18.23;38.68;101855.22;5093221;28;20032;-64
2022/05/03 10:47:54;;;;;;;8.52;6.53;;;;;;;18.32;38.99;101849.91;5093949;28;20073;-64
2022/05/03 10:50:32;;;;;;;7.85;6.10;;;;;;;18.28;38.69;101849.63;5093025;28;20035;-64
2022/05/03 10:53:06;;;;;;;8.00;6.38;;;;;;;18.28;38.60;101852.44;5093512;28;20016;-65
2022/05/03 10:55:40;;;;;;;7.05;5.88;;;;;;;18.39;39.07;101850.47;5093826;28;20024;-65
2022/05/03 10:58:26;;;;;;;8.80;6.57;;;;;;;18.42;39.32;101844.28;5092918;28;20560;-65
2022/05/03 11:01:05;;;;;;;10.50;8.68;;;;;;;18.28;39.27;101855.25;5093532;28;20028;-65
2022/05/03 11:03:31;;;;;;;8.25;7.18;;;;;;;18.30;39.79;101846.53;5093703;28;20059;-65
2022/05/03 11:06:18;;;;;;;7.93;6.82;;;;;;;18.38;39.82;101844.00;5092546;28;20533;-64
2022/05/03 11:09:08;;;;;;;7.10;6.40;;;;;;;18.38;39.23;101849.63;5093588;28;20032;-64
2022/05/03 11:11:39;;;;;;;7.45;6.75;;;;;;;18.37;39.30;101842.31;5092759;28;20032;-65
2022/05/03 11:14:21;;;;;;;8.27;6.95;;;;;;;18.43;39.49;101831.06;5093643;28;20032;-65
2022/05/03 11:16:51;;;;;;;10.30;6.17;;;;;;;18.54;39.22;101821.50;5093382;28;20484;-65
2022/05/03 11:19:19;;;;;;;7.72;6.10;;;;;;;18.60;39.14;101826.00;5092837;28;20036;-65
2022/05/03 11:21:46;;;;;;;8.77;6.82;;;;;;;18.74;39.17;101821.50;5093143;28;20035;-65
2022/05/03 11:24:28;;;;;;;9.40;6.85;;;;;;;18.77;39.26;101828.53;5093176;28;20036;-65
2022/05/03 11:26:57;;;;;;;8.40;5.82;;;;;;;18.83;38.47;101819.78;5092358;28;20032;-65
2022/05/03 11:29:28;;;;;;;7.63;6.13;;;;;;;18.78;38.08;101819.78;5093242;28;20028;-65
2022/05/03 11:31:53;;;;;;;7.43;6.47;;;;;;;18.79;38.45;101807.44;5092479;28;20038;-65
2022/05/03 11:34:19;;;;;;;9.07;6.88;;;;;;;18.87;39.14;101817.25;5092932;28;20375;-65
2022/05/03 11:36:50;;;;;;;8.07;6.90;;;;;;;18.88;38.38;101808.53;5093225;28;20032;-65
2022/05/03 11:39:16;;;;;;;10.98;7.70;;;;;;;18.90;38.65;101799.78;5092031;28;20027;-65
2022/05/03 11:41:42;;;;;;;9.20;7.03;;;;;;;18.91;38.76;101809.94;5092909;28;20028;-65
2022/05/03 11:44:08;;;;;;;8.35;7.45;;;;;;;18.89;38.64;101800.91;5092777;28;20435;-65
2022/05/03 11:46:34;;;;;;;8.32;6.93;;;;;;;18.74;38.83;101798.16;5091896;28;20063;-65
2022/05/03 11:49:04;;;;;;;8.80;6.90;;;;;;;18.66;39.22;101799.53;5092565;28;20019;-65
2022/05/03 11:57:22;;;;;;;12.23;7.50;;;;;;;18.44;40.02;101793.41;5092669;28;20081;-65
2022/05/03 11:59:50;;;;;;;8.00;6.55;;;;;;;18.37;39.85;101786.09;5092415;28;20476;-65
2022/05/03 12:02:19;;;;;;;8.02;6.20;;;;;;;18.34;39.91;101789.47;5091382;28;20491;-66
2022/05/03 12:05:05;;;;;;;7.72;5.80;;;;;;;18.36;39.78;101787.25;5091695;28;20036;-65
2022/05/03 12:07:54;;;;;;;5.35;4.75;;;;;;;18.31;39.04;101790.06;5091275;28;20081;-65
2022/05/03 12:10:28;;;;;;;7.80;5.22;;;;;;;18.31;39.48;101784.44;5092128;28;20471;-65